Terminal Aerodrome Forecast
Issued by NWS

Home | Current Version | Previous Version | Text Only | Print | Product List | Glossary On
Versions: 1 2 3 4 5 6 7 8 9 10 11 12 13
000
FTUS45 KBOI 301204 RRA
TAFTWF
TAF
KTWF 301204Z 3012/3112 20011KT P6SM -SHRA OVC040
      TEMPO 3012/3016 5SM -SHRA BR OVC035
     FM301800 24020G30KT P6SM -SHRASN OVC025
      TEMPO 3018/3021 24035G45KT 3SM SHRASN BKN015
     FM302100 26030G40KT 4SM -SHRASN OVC015
     FM310400 26020KT 3SM -SHSN OVC020=

USA.gov is the U.S. government's official web portal to all federal, state and local government web resources and services.